Time;durP1;ratioP1;P1;durP2;ratioP2;P2;SDS_P1;SDS_P2;PMS_P1;PMS_P2;Temp;Humidity;BMP_temperature;BMP_pressure;BME280_temperature;BME280_humidity;BME280_pressure;Samples;Min_cycle;Max_cycle;Signal;HPM_P1;HPM_P2
2020/12/01 00:01:13;;;;;;;16.20;12.03;;;2.60;99.90;;;;;;5012329;28;20487;-76
2020/12/01 00:03:40;;;;;;;12.33;9.90;;;2.60;99.90;;;;;;5012356;28;20199;-76
2020/12/01 00:06:05;;;;;;;12.03;10.07;;;2.70;99.90;;;;;;5012133;28;20251;-77
2020/12/01 00:08:32;;;;;;;14.37;11.53;;;2.60;99.90;;;;;;5010848;28;20994;-76
2020/12/01 00:10:57;;;;;;;11.40;9.70;;;2.70;99.90;;;;;;5012751;28;20372;-77
2020/12/01 00:13:22;;;;;;;13.37;9.53;;;2.60;99.90;;;;;;5012789;28;20403;-75
2020/12/01 00:15:48;;;;;;;12.63;10.83;;;2.70;99.90;;;;;;5012219;28;20214;-76
2020/12/01 00:18:13;;;;;;;14.30;11.00;;;2.70;99.90;;;;;;5011969;28;20188;-77
2020/12/01 00:20:39;;;;;;;13.47;9.90;;;2.70;99.90;;;;;;5011992;28;20257;-76
2020/12/01 00:23:04;;;;;;;18.13;11.27;;;2.70;99.90;;;;;;5012100;28;20176;-75
2020/12/01 00:25:30;;;;;;;13.37;10.67;;;2.70;99.90;;;;;;5012114;28;20541;-77
2020/12/01 00:27:55;;;;;;;14.80;12.10;;;2.70;99.90;;;;;;5011922;28;20188;-76
2020/12/01 00:30:24;;;;;;;14.20;11.53;;;2.70;99.90;;;;;;5012092;28;20207;-76
2020/12/01 00:32:49;;;;;;;15.90;11.07;;;2.80;99.90;;;;;;5011973;28;20171;-76
2020/12/01 00:35:17;;;;;;;13.80;11.20;;;2.80;99.90;;;;;;5011948;28;20411;-75
2020/12/01 00:37:42;;;;;;;15.07;11.90;;;2.80;99.90;;;;;;5011791;28;20176;-76
2020/12/01 00:40:09;;;;;;;14.10;10.97;;;2.80;99.90;;;;;;5011782;28;20416;-76
2020/12/01 00:42:34;;;;;;;12.53;10.47;;;2.70;99.90;;;;;;5012086;28;20180;-76
2020/12/01 00:45:00;;;;;;;15.13;11.70;;;2.70;99.90;;;;;;5012262;28;20404;-77
2020/12/01 00:47:26;;;;;;;13.70;10.07;;;2.70;99.90;;;;;;5012172;28;20508;-77
2020/12/01 00:49:51;;;;;;;14.10;11.33;;;2.80;99.90;;;;;;5012038;28;20283;-76
2020/12/01 00:52:17;;;;;;;14.87;10.90;;;2.80;99.90;;;;;;5014227;28;20164;-77
2020/12/01 00:54:42;;;;;;;14.07;11.60;;;2.70;99.90;;;;;;5015437;28;20407;-77
2020/12/01 00:57:08;;;;;;;16.87;11.70;;;2.70;99.90;;;;;;5015617;28;20204;-77
2020/12/01 00:59:33;;;;;;;16.30;10.60;;;2.80;99.90;;;;;;5015675;28;20199;-77
2020/12/01 01:01:59;;;;;;;13.60;11.03;;;2.80;99.90;;;;;;5015682;28;20303;-75
2020/12/01 01:04:24;;;;;;;15.17;12.30;;;2.80;99.90;;;;;;5015508;28;20177;-74
2020/12/01 01:06:50;;;;;;;13.87;10.93;;;2.80;99.90;;;;;;5015395;28;20179;-77
2020/12/01 01:09:17;;;;;;;19.27;11.87;;;2.70;99.90;;;;;;5015150;28;20702;-75
2020/12/01 01:11:43;;;;;;;15.53;12.63;;;2.80;99.90;;;;;;5015186;28;20173;-75
2020/12/01 01:14:08;;;;;;;16.27;10.53;;;2.80;99.90;;;;;;5015252;28;20411;-74
2020/12/01 01:16:34;;;;;;;16.57;10.97;;;2.80;99.90;;;;;;5014980;28;20645;-74
2020/12/01 01:19:01;;;;;;;17.10;10.17;;;2.90;99.90;;;;;;5014987;28;20271;-75
2020/12/01 01:21:27;;;;;;;12.73;10.73;;;2.80;99.90;;;;;;5015151;28;20161;-75
2020/12/01 01:23:52;;;;;;;14.93;12.00;;;2.90;99.90;;;;;;5015207;28;20466;-75
2020/12/01 01:26:18;;;;;;;15.83;11.87;;;2.80;99.90;;;;;;5015019;28;20168;-74
2020/12/01 01:28:44;;;;;;;13.50;11.37;;;2.90;99.90;;;;;;5014806;28;20214;-74
2020/12/01 01:31:09;;;;;;;14.87;12.03;;;2.80;99.90;;;;;;5015169;28;20408;-75
2020/12/01 01:33:35;;;;;;;17.03;12.00;;;2.80;99.90;;;;;;5014859;28;20570;-77
2020/12/01 01:36:00;;;;;;;16.07;12.30;;;2.80;99.90;;;;;;5014833;28;20180;-74
2020/12/01 01:38:26;;;;;;;13.10;10.07;;;2.80;99.90;;;;;;5014572;28;20644;-75
2020/12/01 01:40:59;;;;;;;18.67;12.40;;;2.90;99.90;;;;;;5014733;28;20633;-75
2020/12/01 01:43:24;;;;;;;16.70;13.00;;;2.90;99.90;;;;;;5014643;28;20664;-74
2020/12/01 01:45:50;;;;;;;17.40;12.37;;;2.90;99.90;;;;;;5014634;28;20432;-74
2020/12/01 01:48:30;;;;;;;14.90;11.13;;;2.90;99.90;;;;;;5014350;28;20180;-75
2020/12/01 01:51:00;;;;;;;15.03;10.90;;;2.90;99.90;;;;;;5014505;28;20771;-74
2020/12/01 01:53:27;;;;;;;13.17;10.40;;;2.90;99.90;;;;;;5014405;28;20521;-74
2020/12/01 01:55:57;;;;;;;15.97;11.20;;;2.90;99.90;;;;;;5014693;28;20430;-75
2020/12/01 01:58:28;;;;;;;16.20;11.57;;;2.90;99.90;;;;;;5014022;28;20423;-75
2020/12/01 02:01:02;;;;;;;15.33;11.20;;;2.80;99.90;;;;;;5014387;28;20408;-74
2020/12/01 02:03:32;;;;;;;16.30;13.43;;;2.80;99.90;;;;;;5013248;28;20935;-75
2020/12/01 02:05:59;;;;;;;15.50;12.33;;;2.80;99.90;;;;;;5014298;28;20497;-75
2020/12/01 02:08:26;;;;;;;13.20;10.80;;;2.80;99.90;;;;;;5013985;28;20443;-75
2020/12/01 02:10:54;;;;;;;18.63;12.27;;;2.80;99.90;;;;;;5014054;28;20415;-74
2020/12/01 02:13:31;;;;;;;17.00;13.97;;;2.80;99.90;;;;;;5014067;28;20804;-75
2020/12/01 02:15:57;;;;;;;18.10;12.40;;;2.80;99.90;;;;;;5014172;28;20501;-75
2020/12/01 02:18:33;;;;;;;18.37;13.37;;;2.80;99.90;;;;;;5014057;28;20514;-74
2020/12/01 02:21:01;;;;;;;18.33;13.17;;;2.80;99.90;;;;;;5014002;28;20395;-75
2020/12/01 02:23:26;;;;;;;17.13;12.77;;;2.80;99.90;;;;;;5013879;28;20418;-75
2020/12/01 02:25:52;;;;;;;18.87;12.90;;;2.80;99.90;;;;;;5013798;28;20812;-75
2020/12/01 02:28:17;;;;;;;19.00;13.67;;;2.90;99.90;;;;;;5013796;28;20184;-75
2020/12/01 02:30:42;;;;;;;15.73;12.10;;;2.80;99.90;;;;;;5014040;28;20200;-75
2020/12/01 02:33:08;;;;;;;20.37;13.57;;;2.80;99.90;;;;;;5014235;28;20595;-75
2020/12/01 02:35:33;;;;;;;15.10;12.90;;;2.90;99.90;;;;;;5013910;28;20164;-75
2020/12/01 02:37:59;;;;;;;18.77;13.20;;;2.90;99.90;;;;;;5019147;28;20223;-77
2020/12/01 02:40:24;;;;;;;17.80;12.93;;;2.80;99.90;;;;;;5017952;28;20510;-75
2020/12/01 02:42:53;;;;;;;16.50;13.10;;;2.80;99.90;;;;;;5018784;28;20173;-75
2020/12/01 02:45:19;;;;;;;19.83;13.40;;;2.90;99.90;;;;;;5015022;28;20203;-74
2020/12/01 02:47:45;;;;;;;19.80;13.37;;;2.80;99.90;;;;;;5013288;28;20407;-75
2020/12/01 02:50:12;;;;;;;17.03;13.80;;;2.80;99.90;;;;;;5013568;28;20962;-75
2020/12/01 02:52:37;;;;;;;18.07;13.50;;;2.80;99.90;;;;;;5013619;28;20164;-75
2020/12/01 02:55:03;;;;;;;19.00;13.70;;;2.80;99.90;;;;;;5014040;28;20403;-75
2020/12/01 02:57:29;;;;;;;18.00;14.47;;;2.80;99.90;;;;;;5013293;28;20173;-74
2020/12/01 02:59:54;;;;;;;17.60;13.27;;;2.80;99.90;;;;;;5013213;28;20573;-75
2020/12/01 03:02:19;;;;;;;20.00;13.97;;;2.80;99.90;;;;;;5013355;28;20168;-75
2020/12/01 03:04:45;;;;;;;20.37;14.53;;;2.80;99.90;;;;;;5013751;28;20247;-74
2020/12/01 03:07:10;;;;;;;18.03;13.40;;;2.80;99.90;;;;;;5012976;28;20179;-74
2020/12/01 03:09:36;;;;;;;18.60;14.40;;;2.80;99.90;;;;;;5012868;28;20676;-74
2020/12/01 03:12:02;;;;;;;19.43;15.03;;;2.80;99.90;;;;;;5013082;28;20227;-75
2020/12/01 03:14:27;;;;;;;20.33;15.10;;;2.90;99.90;;;;;;5012122;28;20172;-74
2020/12/01 03:16:53;;;;;;;27.90;16.20;;;2.90;99.90;;;;;;5013055;28;20457;-75
2020/12/01 03:19:19;;;;;;;17.93;13.20;;;2.90;99.90;;;;;;5012923;28;20196;-74
2020/12/01 03:21:45;;;;;;;19.63;14.07;;;2.80;99.90;;;;;;5012839;28;20218;-75
2020/12/01 03:24:10;;;;;;;19.97;14.00;;;2.90;99.90;;;;;;5013042;28;20887;-75
2020/12/01 03:26:36;;;;;;;21.40;15.97;;;2.90;99.90;;;;;;5012775;28;20740;-74
2020/12/01 03:29:01;;;;;;;23.83;15.27;;;2.90;99.90;;;;;;5012706;28;20200;-77
2020/12/01 03:31:27;;;;;;;21.43;15.30;;;2.90;99.90;;;;;;5011206;28;20283;-75
2020/12/01 03:33:52;;;;;;;21.40;16.70;;;2.90;99.90;;;;;;5012784;28;20252;-77
2020/12/01 03:36:19;;;;;;;20.63;15.57;;;2.90;99.90;;;;;;5012528;28;20637;-75
2020/12/01 03:38:45;;;;;;;22.00;16.50;;;2.90;99.90;;;;;;5012536;28;20242;-74
2020/12/01 03:41:11;;;;;;;27.73;16.03;;;2.90;99.90;;;;;;5012537;28;20486;-75
2020/12/01 03:43:36;;;;;;;24.13;17.97;;;2.90;99.90;;;;;;5012542;28;20223;-74
2020/12/01 03:46:02;;;;;;;23.37;16.13;;;2.90;99.90;;;;;;5012457;28;20834;-75
2020/12/01 03:48:29;;;;;;;27.67;17.93;;;2.90;99.90;;;;;;5012282;28;20188;-75
2020/12/01 03:50:54;;;;;;;25.20;17.80;;;2.90;99.90;;;;;;5012524;28;20986;-75
2020/12/01 03:53:20;;;;;;;25.80;17.80;;;3.00;99.90;;;;;;5012603;28;20487;-75
2020/12/01 03:55:45;;;;;;;23.33;15.83;;;3.00;99.90;;;;;;5012453;28;20164;-75
2020/12/01 03:58:10;;;;;;;21.77;15.27;;;3.00;99.90;;;;;;5012324;28;20208;-74
2020/12/01 04:00:36;;;;;;;23.20;17.80;;;3.00;99.90;;;;;;5012428;28;20168;-75
2020/12/01 04:03:01;;;;;;;23.37;16.50;;;3.00;99.90;;;;;;5012284;28;20172;-75
2020/12/01 04:05:28;;;;;;;25.90;16.70;;;3.00;99.90;;;;;;5012043;28;20172;-74
2020/12/01 04:07:55;;;;;;;27.40;18.73;;;3.00;99.90;;;;;;5011902;28;20181;-77
2020/12/01 04:10:23;;;;;;;25.43;18.40;;;3.00;99.90;;;;;;5012566;28;20503;-77
2020/12/01 04:12:49;;;;;;;23.93;18.50;;;2.90;99.90;;;;;;5012552;28;20403;-75
2020/12/01 04:15:16;;;;;;;27.77;18.67;;;2.90;99.90;;;;;;5012135;28;20410;-75
2020/12/01 04:17:42;;;;;;;29.73;18.63;;;3.00;99.90;;;;;;5010528;28;20833;-76
2020/12/01 04:20:07;;;;;;;25.13;17.63;;;2.90;99.90;;;;;;5010743;28;20451;-75
2020/12/01 04:22:33;;;;;;;27.23;17.73;;;3.00;99.90;;;;;;5012093;28;20628;-76
2020/12/01 04:25:00;;;;;;;25.57;18.13;;;2.90;99.90;;;;;;5012294;28;20172;-76
2020/12/01 04:27:26;;;;;;;29.40;19.63;;;2.90;99.90;;;;;;5016021;28;20465;-76
2020/12/01 04:29:51;;;;;;;31.07;17.83;;;2.90;99.90;;;;;;5015919;28;20459;-75
2020/12/01 04:32:17;;;;;;;28.83;18.90;;;2.90;99.90;;;;;;5015906;28;20169;-75
2020/12/01 04:34:42;;;;;;;27.77;17.80;;;2.90;99.90;;;;;;5015822;28;20161;-75
2020/12/01 04:37:08;;;;;;;25.90;17.23;;;2.80;99.90;;;;;;5015825;28;20208;-75
2020/12/01 04:39:34;;;;;;;27.90;18.93;;;2.90;99.90;;;;;;5015963;28;20250;-75
2020/12/01 04:42:01;;;;;;;25.57;19.27;;;2.90;99.90;;;;;;5015905;28;20172;-76
2020/12/01 04:44:36;;;;;;;28.37;19.13;;;3.00;99.90;;;;;;5015863;28;20160;-75
2020/12/01 04:47:07;;;;;;;31.63;19.80;;;3.00;99.90;;;;;;5015576;28;20421;-75
2020/12/01 04:49:39;;;;;;;28.90;19.00;;;2.90;99.90;;;;;;5015584;28;20505;-76
2020/12/01 04:52:32;;;;;;;28.50;19.27;;;2.90;99.90;;;;;;5015570;28;20407;-75
2020/12/01 04:55:33;;;;;;;26.30;20.47;;;3.00;99.90;;;;;;5015589;28;20823;-75
2020/12/01 04:58:53;;;;;;;30.20;20.60;;;2.90;99.90;;;;;;5015371;28;20923;-75
2020/12/01 05:01:45;;;;;;;31.83;21.40;;;2.90;99.90;;;;;;5013453;28;20899;-76
2020/12/01 05:04:27;;;;;;;25.43;19.67;;;2.90;99.90;;;;;;5015699;28;20418;-75
2020/12/01 05:07:09;;;;;;;29.50;20.80;;;3.00;99.90;;;;;;5015287;28;20430;-76
2020/12/01 05:09:40;;;;;;;29.73;19.00;;;3.00;99.90;;;;;;5015250;28;20512;-76
2020/12/01 05:12:26;;;;;;;28.80;19.43;;;3.00;99.90;;;;;;5015264;28;20518;-76
2020/12/01 05:14:56;;;;;;;34.40;21.20;;;3.00;99.90;;;;;;5015624;28;20410;-76
2020/12/01 05:18:10;;;;;;;33.63;23.20;;;3.00;99.90;;;;;;5015270;28;20439;-76
2020/12/01 05:20:45;;;;;;;33.13;21.90;;;3.00;99.90;;;;;;5010302;28;20415;-76
2020/12/01 05:23:14;;;;;;;31.10;20.73;;;3.00;99.90;;;;;;5026468;28;20917;-76
2020/12/01 05:25:39;;;;;;;31.90;21.60;;;3.00;99.90;;;;;;5035037;28;20423;-76
2020/12/01 05:28:09;;;;;;;32.23;21.50;;;3.00;99.90;;;;;;5034648;28;20495;-76
2020/12/01 05:30:35;;;;;;;32.10;21.77;;;3.00;99.90;;;;;;5035017;28;20205;-76
2020/12/01 05:33:15;;;;;;;35.57;22.97;;;3.00;99.90;;;;;;5034743;28;20410;-76
2020/12/01 05:35:41;;;;;;;32.93;21.17;;;2.90;99.90;;;;;;5034697;28;20890;-76
2020/12/01 05:38:12;;;;;;;27.97;20.30;;;2.90;99.90;;;;;;5033496;28;20434;-75
2020/12/01 05:40:48;;;;;;;32.73;21.50;;;3.00;99.90;;;;;;5034674;28;20242;-75
2020/12/01 05:43:43;;;;;;;36.00;21.17;;;3.00;99.90;;;;;;5034434;28;20401;-76
2020/12/01 05:46:17;;;;;;;31.60;21.27;;;2.90;99.90;;;;;;5034075;28;20426;-75
2020/12/01 05:48:53;;;;;;;34.50;22.60;;;3.00;99.90;;;;;;5034459;28;20857;-76
2020/12/01 05:51:26;;;;;;;32.03;22.30;;;2.90;99.90;;;;;;5034302;28;20410;-76
2020/12/01 05:53:56;;;;;;;31.70;19.70;;;2.90;99.90;;;;;;5034167;28;20468;-75
2020/12/01 05:56:22;;;;;;;34.00;22.77;;;3.00;99.90;;;;;;5022803;28;20439;-76
2020/12/01 05:58:57;;;;;;;30.00;22.17;;;3.00;99.90;;;;;;5013060;28;20470;-76
2020/12/01 06:01:23;;;;;;;34.03;22.07;;;3.00;99.90;;;;;;5013174;28;20256;-74
2020/12/01 06:04:01;;;;;;;30.90;19.80;;;3.00;99.90;;;;;;5014490;28;20412;-75
2020/12/01 06:06:36;;;;;;;34.60;22.27;;;3.00;99.90;;;;;;5014681;28;20584;-75
2020/12/01 06:09:26;;;;;;;36.23;22.43;;;2.90;99.90;;;;;;5013930;28;20984;-75
2020/12/01 06:12:04;;;;;;;31.93;20.57;;;2.90;99.90;;;;;;5014118;28;20490;-75
2020/12/01 06:15:08;;;;;;;36.13;23.60;;;2.90;99.90;;;;;;5014081;28;20435;-75
2020/12/01 06:17:41;;;;;;;32.07;23.00;;;2.90;99.90;;;;;;5013125;28;20415;-75
2020/12/01 06:20:26;;;;;;;34.07;22.50;;;3.00;99.90;;;;;;5013904;28;20407;-75
2020/12/01 06:23:22;;;;;;;31.77;22.10;;;3.00;99.90;;;;;;5014282;28;20465;-75
2020/12/01 06:26:02;;;;;;;31.23;21.60;;;2.90;99.90;;;;;;5013852;28;20413;-75
2020/12/01 06:29:27;;;;;;;28.80;22.17;;;2.90;99.90;;;;;;5012409;28;20431;-75
2020/12/01 06:32:22;;;;;;;30.03;20.20;;;3.00;99.90;;;;;;5029090;28;20406;-75
2020/12/01 06:35:22;;;;;;;35.50;21.43;;;3.00;99.90;;;;;;5013712;28;20907;-75
2020/12/01 06:38:40;;;;;;;35.67;21.40;;;3.00;99.90;;;;;;5013473;28;20430;-74
2020/12/01 06:41:15;;;;;;;29.10;19.10;;;3.00;99.90;;;;;;5004732;28;20423;-75
2020/12/01 06:43:48;;;;;;;33.87;22.87;;;2.90;99.90;;;;;;5013536;28;20797;-75
2020/12/01 06:47:04;;;;;;;33.03;22.17;;;2.90;99.90;;;;;;5013430;28;20414;-75
2020/12/01 06:49:32;;;;;;;36.97;22.43;;;2.90;99.90;;;;;;5001291;28;20474;-75
2020/12/01 06:52:02;;;;;;;34.47;26.17;;;3.00;99.90;;;;;;5013310;28;20780;-76
2020/12/01 06:54:27;;;;;;;34.43;21.93;;;3.00;99.90;;;;;;5013789;28;20878;-75
2020/12/01 06:57:01;;;;;;;37.57;22.50;;;3.00;99.90;;;;;;5013527;28;20517;-75
2020/12/01 06:59:27;;;;;;;31.10;23.13;;;3.00;99.90;;;;;;5013254;28;20563;-75
2020/12/01 07:02:03;;;;;;;30.10;21.70;;;3.00;99.90;;;;;;5013235;28;20404;-75
2020/12/01 07:04:29;;;;;;;37.97;26.17;;;3.00;99.90;;;;;;5013148;28;20318;-75
2020/12/01 07:07:00;;;;;;;35.43;23.97;;;3.00;99.90;;;;;;5013048;28;20494;-75
2020/12/01 07:09:46;;;;;;;30.17;20.97;;;3.00;99.90;;;;;;5013281;28;20215;-76
2020/12/01 07:12:15;;;;;;;35.03;22.77;;;3.10;99.90;;;;;;5013307;28;20457;-75
2020/12/01 07:14:45;;;;;;;38.60;25.23;;;3.10;99.90;;;;;;5012984;28;20407;-75
2020/12/01 07:17:20;;;;;;;31.63;21.80;;;3.20;99.90;;;;;;5012774;28;20399;-75
2020/12/01 07:20:07;;;;;;;40.47;26.20;;;3.30;99.90;;;;;;5012967;28;20472;-75
2020/12/01 07:22:53;;;;;;;35.83;22.60;;;3.20;99.90;;;;;;5028221;28;20410;-75
2020/12/01 07:25:22;;;;;;;33.50;23.30;;;3.10;99.90;;;;;;5013196;28;20411;-75
2020/12/01 07:28:04;;;;;;;35.70;23.30;;;3.10;99.90;;;;;;5012552;28;20899;-75
2020/12/01 07:30:44;;;;;;;34.37;22.90;;;3.20;99.90;;;;;;5024311;28;20457;-75
2020/12/01 07:33:16;;;;;;;35.93;23.47;;;3.20;99.90;;;;;;5034068;28;20405;-74
2020/12/01 07:35:49;;;;;;;34.40;24.30;;;3.10;99.90;;;;;;5035279;28;20395;-75
2020/12/01 07:38:32;;;;;;;33.63;21.77;;;3.20;99.90;;;;;;5034109;28;20422;-75
2020/12/01 07:41:24;;;;;;;30.53;21.87;;;3.20;99.90;;;;;;5032410;28;20952;-75
2020/12/01 07:44:08;;;;;;;34.50;22.60;;;3.20;99.90;;;;;;5032260;28;20402;-75
2020/12/01 07:49:15;;;;;;;36.00;21.40;;;3.20;99.90;;;;;;5032077;28;20465;-75
2020/12/01 07:51:41;;;;;;;30.73;21.63;;;3.30;99.90;;;;;;5032039;28;20407;-75
2020/12/01 07:54:08;;;;;;;35.60;24.30;;;3.40;99.90;;;;;;5031993;28;20754;-75
2020/12/01 07:56:33;;;;;;;36.63;22.13;;;3.30;99.90;;;;;;5031884;28;20410;-75
2020/12/01 07:59:06;;;;;;;35.37;23.50;;;3.30;99.90;;;;;;5032045;28;20431;-75
2020/12/01 08:01:32;;;;;;;32.57;22.10;;;3.30;99.90;;;;;;5031781;28;20182;-76
2020/12/01 08:04:13;;;;;;;34.07;21.00;;;3.40;99.90;;;;;;5032183;28;20497;-75
2020/12/01 08:06:40;;;;;;;31.70;20.37;;;3.50;99.90;;;;;;5031861;28;20171;-75
2020/12/01 08:09:18;;;;;;;31.40;21.20;;;3.50;99.90;;;;;;5031354;28;20466;-74
2020/12/01 08:11:46;;;;;;;32.97;22.10;;;3.40;99.90;;;;;;5030874;28;20430;-75
2020/12/01 08:14:11;;;;;;;32.80;23.07;;;3.50;99.90;;;;;;5031740;28;20500;-74
2020/12/01 08:16:37;;;;;;;33.17;21.33;;;3.50;99.90;;;;;;5031764;28;20403;-75
2020/12/01 08:19:04;;;;;;;29.07;19.97;;;3.50;99.90;;;;;;5031994;28;20200;-74
2020/12/01 08:21:36;;;;;;;34.97;21.10;;;3.50;99.90;;;;;;5031758;28;20172;-74
2020/12/01 08:24:07;;;;;;;36.40;22.17;;;3.50;99.90;;;;;;5031719;28;20414;-74
2020/12/01 08:26:36;;;;;;;35.07;21.63;;;3.50;99.90;;;;;;5031728;28;20406;-75
2020/12/01 08:29:21;;;;;;;28.67;20.27;;;3.70;99.90;;;;;;5031554;28;20496;-75
2020/12/01 08:31:57;;;;;;;29.30;20.27;;;3.60;99.90;;;;;;5011794;28;20408;-76
2020/12/01 08:34:36;;;;;;;25.27;18.63;;;3.60;99.90;;;;;;5011769;28;20398;-75
2020/12/01 08:37:04;;;;;;;32.37;20.93;;;3.80;99.90;;;;;;5011986;28;20465;-74
2020/12/01 08:39:45;;;;;;;33.00;21.03;;;3.90;99.90;;;;;;5011570;28;20427;-74
2020/12/01 08:42:21;;;;;;;27.57;19.90;;;3.80;99.90;;;;;;5011880;28;20430;-78
2020/12/01 08:45:24;;;;;;;32.27;19.40;;;3.90;99.90;;;;;;5012030;28;20423;-75
2020/12/01 08:47:59;;;;;;;27.13;18.20;;;3.90;99.90;;;;;;5011592;28;20430;-74
2020/12/01 08:50:32;;;;;;;27.00;19.57;;;3.90;99.90;;;;;;5012164;28;20442;-74
2020/12/01 08:53:10;;;;;;;26.60;19.10;;;4.00;99.90;;;;;;5011568;28;20483;-75
2020/12/01 08:55:38;;;;;;;27.00;18.40;;;4.10;99.90;;;;;;5010546;28;20498;-75
2020/12/01 08:58:22;;;;;;;26.97;17.70;;;4.10;99.90;;;;;;5011536;28;20427;-74
2020/12/01 09:01:01;;;;;;;26.30;18.30;;;4.10;99.90;;;;;;5011661;28;20462;-75
2020/12/01 09:03:30;;;;;;;26.23;18.37;;;4.10;99.90;;;;;;5012004;28;20411;-75
2020/12/01 09:05:56;;;;;;;27.47;17.00;;;4.20;99.90;;;;;;5011615;28;20417;-75
2020/12/01 09:11:16;;;;;;;27.33;17.80;;;4.30;99.90;;;;;;5011602;28;20458;-75
2020/12/01 09:13:58;;;;;;;24.63;17.60;;;4.30;99.90;;;;;;5014492;28;20926;-75
2020/12/01 09:16:39;;;;;;;26.80;19.17;;;4.20;99.90;;;;;;5015281;28;20414;-75
2020/12/01 09:19:41;;;;;;;30.47;17.50;;;4.60;99.90;;;;;;5015203;28;20438;-74
2020/12/01 09:22:31;;;;;;;24.23;17.10;;;4.70;99.90;;;;;;5014857;28;20423;-74
2020/12/01 09:25:22;;;;;;;26.30;17.27;;;4.50;99.90;;;;;;5015037;28;20450;-75
2020/12/01 09:27:49;;;;;;;25.80;17.90;;;4.60;99.90;;;;;;5014801;28;20412;-75
2020/12/01 09:30:36;;;;;;;23.80;17.27;;;4.60;99.90;;;;;;5024041;28;20617;-75
2020/12/01 09:33:07;;;;;;;27.00;16.80;;;4.40;99.90;;;;;;5034629;28;20418;-74
2020/12/01 09:35:32;;;;;;;23.67;17.50;;;4.40;99.90;;;;;;5034634;28;20408;-75
2020/12/01 09:37:58;;;;;;;22.93;16.77;;;4.50;99.90;;;;;;5034358;28;20885;-74
2020/12/01 09:40:26;;;;;;;24.67;16.80;;;4.50;99.90;;;;;;5034849;28;20647;-75
2020/12/01 09:42:56;;;;;;;25.63;17.27;;;4.50;99.90;;;;;;5034250;28;20626;-75
2020/12/01 09:45:28;;;;;;;27.03;16.80;;;4.50;99.90;;;;;;5034439;28;20415;-75
2020/12/01 09:47:59;;;;;;;24.20;16.83;;;4.40;99.90;;;;;;5034525;28;20423;-74
2020/12/01 09:50:27;;;;;;;24.07;16.80;;;4.40;99.90;;;;;;5034358;28;20504;-74
2020/12/01 09:53:05;;;;;;;23.20;15.97;;;4.30;99.90;;;;;;5034262;28;20797;-74
2020/12/01 09:58:20;;;;;;;25.40;16.57;;;4.50;99.90;;;;;;5034493;28;20460;-73
2020/12/01 10:02:40;;;;;;;25.70;17.63;;;4.60;99.90;;;;;;5034603;28;20417;-74
2020/12/01 10:09:07;;;;;;;27.37;17.80;;;4.30;99.90;;;;;;5034665;28;20473;-73
2020/12/01 10:12:02;;;;;;;25.33;18.40;;;4.30;99.90;;;;;;5035900;28;20806;-73
2020/12/01 10:15:27;;;;;;;28.57;17.20;;;4.40;99.90;;;;;;5033778;28;20496;-73
2020/12/01 10:20:28;;;;;;;24.93;17.33;;;4.40;99.90;;;;;;5033795;28;20526;-73
2020/12/01 10:31:49;;;;;;;27.50;18.70;;;4.40;99.90;;;;;;5033560;28;20461;-73
2020/12/01 10:36:18;;;;;;;26.27;17.30;;;4.40;99.90;;;;;;5033301;28;20433;-74
2020/12/01 10:38:44;;;;;;;21.97;17.57;;;4.50;99.90;;;;;;5033399;28;20946;-74
2020/12/01 10:41:09;;;;;;;23.77;16.63;;;4.50;99.90;;;;;;5033329;28;20408;-74
2020/12/01 10:43:35;;;;;;;31.00;20.43;;;4.40;99.90;;;;;;5033259;28;20198;-74
2020/12/01 10:46:00;;;;;;;24.53;17.07;;;4.50;99.90;;;;;;5033505;28;20172;-73
2020/12/01 10:48:26;;;;;;;22.67;16.43;;;4.40;99.90;;;;;;5033163;28;20286;-73
2020/12/01 10:50:51;;;;;;;27.73;18.10;;;4.40;99.90;;;;;;5033238;28;20203;-73
2020/12/01 10:53:16;;;;;;;29.07;18.30;;;4.30;99.90;;;;;;5033063;28;20172;-73
2020/12/01 10:55:42;;;;;;;24.73;17.37;;;4.40;99.90;;;;;;5033002;28;20637;-73
2020/12/01 10:58:07;;;;;;;30.10;17.97;;;4.40;99.90;;;;;;5032856;28;20214;-73
2020/12/01 11:00:33;;;;;;;23.67;16.90;;;4.50;99.90;;;;;;5032925;28;20167;-73
2020/12/01 11:02:58;;;;;;;24.57;17.63;;;4.40;99.90;;;;;;5033042;28;20290;-73
2020/12/01 11:05:30;;;;;;;23.47;15.90;;;4.30;99.90;;;;;;5032883;28;20182;-73
2020/12/01 11:07:56;;;;;;;22.30;17.60;;;4.40;99.90;;;;;;5032523;28;20213;-73
2020/12/01 11:10:22;;;;;;;23.57;17.10;;;4.50;99.90;;;;;;5032684;28;20541;-73
2020/12/01 11:12:48;;;;;;;25.27;17.73;;;4.60;99.90;;;;;;5032709;28;20506;-74
2020/12/01 11:15:14;;;;;;;24.90;17.33;;;4.50;99.90;;;;;;5032778;28;20222;-73
2020/12/01 11:17:40;;;;;;;23.27;16.50;;;4.60;99.90;;;;;;5032534;28;20531;-73
2020/12/01 11:20:07;;;;;;;26.47;18.17;;;4.60;99.90;;;;;;5032611;28;20418;-73
2020/12/01 11:22:34;;;;;;;23.87;16.97;;;4.60;99.90;;;;;;5032620;28;20175;-73
2020/12/01 11:24:59;;;;;;;25.87;17.87;;;4.50;99.90;;;;;;5032396;28;20399;-73
2020/12/01 11:27:25;;;;;;;28.67;16.60;;;4.50;99.90;;;;;;5032336;28;20410;-73
2020/12/01 11:29:50;;;;;;;24.20;15.50;;;4.50;99.90;;;;;;5032483;28;20194;-73
2020/12/01 11:32:16;;;;;;;26.63;17.07;;;4.60;99.90;;;;;;5032426;28;20175;-73
2020/12/01 11:34:42;;;;;;;25.33;17.20;;;4.40;99.90;;;;;;5031963;28;20217;-72
2020/12/01 11:37:07;;;;;;;23.83;17.07;;;4.40;99.90;;;;;;5032578;28;20162;-73
2020/12/01 11:39:32;;;;;;;21.70;17.17;;;4.50;99.90;;;;;;5033441;28;20202;-74
2020/12/01 11:41:58;;;;;;;23.90;17.67;;;4.40;99.90;;;;;;5033438;28;20639;-75
2020/12/01 11:44:23;;;;;;;24.03;17.63;;;4.40;99.90;;;;;;5032971;28;20175;-74
2020/12/01 11:46:49;;;;;;;27.20;15.90;;;4.50;99.90;;;;;;5032432;28;20313;-74
2020/12/01 11:49:15;;;;;;;20.07;15.70;;;4.60;99.90;;;;;;5033092;28;20194;-75
2020/12/01 11:51:41;;;;;;;19.80;15.63;;;4.70;99.90;;;;;;5033083;28;20160;-75
2020/12/01 11:54:08;;;;;;;21.80;15.80;;;4.80;99.90;;;;;;5032651;28;20247;-75
2020/12/01 11:56:33;;;;;;;23.97;17.87;;;4.70;99.90;;;;;;5032269;28;20407;-75
2020/12/01 11:58:59;;;;;;;27.20;18.27;;;4.80;99.90;;;;;;5032539;28;20452;-75
2020/12/01 12:01:24;;;;;;;24.10;15.80;;;4.70;99.90;;;;;;5032068;28;20168;-76
2020/12/01 12:03:50;;;;;;;26.13;16.90;;;4.70;99.90;;;;;;5031978;28;20160;-76
2020/12/01 12:06:16;;;;;;;24.27;16.60;;;4.90;99.90;;;;;;5031917;28;20659;-75
2020/12/01 12:08:42;;;;;;;25.23;18.63;;;4.80;99.90;;;;;;5034325;28;20234;-77
2020/12/01 12:11:08;;;;;;;24.33;17.83;;;4.80;99.90;;;;;;5034732;28;20497;-75
2020/12/01 12:13:33;;;;;;;25.67;17.23;;;4.90;99.90;;;;;;5033503;28;20410;-76
2020/12/01 12:15:59;;;;;;;22.33;16.00;;;4.90;99.90;;;;;;5032213;28;20207;-75
2020/12/01 12:18:24;;;;;;;23.87;18.17;;;4.80;99.90;;;;;;5031499;28;20616;-76
2020/12/01 12:20:50;;;;;;;26.43;17.97;;;4.80;99.90;;;;;;5031820;28;20263;-75
2020/12/01 12:23:15;;;;;;;28.70;18.60;;;4.90;99.90;;;;;;5030717;28;20186;-75
2020/12/01 12:25:41;;;;;;;26.50;17.83;;;4.80;99.90;;;;;;5031913;28;20176;-76
2020/12/01 12:28:06;;;;;;;23.37;18.30;;;4.80;99.90;;;;;;5033041;28;20226;-76
2020/12/01 12:30:32;;;;;;;22.73;16.67;;;4.80;99.90;;;;;;5031608;28;20199;-75
2020/12/01 12:32:57;;;;;;;23.20;17.67;;;4.80;99.90;;;;;;5031793;28;20163;-76
2020/12/01 12:35:23;;;;;;;26.53;18.00;;;4.80;99.90;;;;;;5031777;28;20175;-76
2020/12/01 12:37:50;;;;;;;21.53;15.73;;;4.80;99.90;;;;;;5031419;28;20160;-76
2020/12/01 12:40:16;;;;;;;23.33;16.40;;;4.70;99.90;;;;;;5031737;28;20402;-75
2020/12/01 12:42:42;;;;;;;23.53;16.97;;;4.90;99.90;;;;;;5031445;28;20407;-76
2020/12/01 12:45:08;;;;;;;25.67;17.80;;;4.90;99.90;;;;;;5031574;28;20902;-75
2020/12/01 12:47:34;;;;;;;26.27;16.87;;;4.80;99.90;;;;;;5034463;28;20175;-75
2020/12/01 12:49:59;;;;;;;25.07;17.87;;;4.80;99.90;;;;;;5035455;28;20445;-75
2020/12/01 12:52:25;;;;;;;25.17;18.03;;;4.80;99.90;;;;;;5035616;28;20214;-76
2020/12/01 12:54:50;;;;;;;24.77;17.73;;;4.80;99.90;;;;;;5035342;28;20171;-75
2020/12/01 12:57:16;;;;;;;26.50;17.93;;;4.80;99.90;;;;;;5035134;28;20625;-75
2020/12/01 12:59:41;;;;;;;29.90;19.47;;;4.70;99.90;;;;;;5035241;28;20179;-75
2020/12/01 13:02:07;;;;;;;25.47;16.57;;;4.80;99.90;;;;;;5035130;28;20227;-75
2020/12/01 13:04:32;;;;;;;28.77;19.53;;;4.70;99.90;;;;;;5035030;28;20203;-75
2020/12/01 13:06:58;;;;;;;25.20;17.63;;;4.70;99.90;;;;;;5034849;28;20561;-75
2020/12/01 13:09:24;;;;;;;28.60;19.57;;;4.70;99.90;;;;;;5034896;28;20206;-75
2020/12/01 13:11:50;;;;;;;26.03;17.57;;;4.80;99.90;;;;;;5035096;28;20235;-76
2020/12/01 13:14:16;;;;;;;22.87;16.83;;;4.70;99.90;;;;;;5035177;28;20190;-75
2020/12/01 13:16:46;;;;;;;22.20;17.57;;;4.90;99.90;;;;;;5034681;28;20490;-76
2020/12/01 13:19:11;;;;;;;24.70;16.60;;;4.90;99.90;;;;;;5034669;28;20195;-76
2020/12/01 13:21:37;;;;;;;24.47;16.67;;;4.80;99.90;;;;;;5034532;28;20429;-75
2020/12/01 13:24:02;;;;;;;21.63;16.37;;;4.70;99.90;;;;;;5034767;28;20176;-76